createdAt,value
2022-11-15T00:00:58.422Z,99182.31
2022-11-15T00:03:27.830Z,99167.53
2022-11-15T00:05:55.104Z,99168.47
2022-11-15T00:08:21.937Z,99171.94
2022-11-15T00:11:00.227Z,99164.25
2022-11-15T00:13:28.030Z,99159.88
2022-11-15T00:15:58.402Z,99158.31
2022-11-15T00:18:25.453Z,99160.97
2022-11-15T00:20:52.500Z,99154.94
2022-11-15T00:23:19.290Z,99147.25
2022-11-15T00:25:46.353Z,99157.75
2022-11-15T00:28:13.373Z,99156.00
2022-11-15T00:30:40.432Z,99158.63
2022-11-15T00:33:07.724Z,99160.41
2022-11-15T00:35:35.818Z,99156.03
2022-11-15T00:38:03.589Z,99155.16
2022-11-15T00:40:30.865Z,99155.16
2022-11-15T00:42:58.223Z,99162.09
2022-11-15T00:45:25.773Z,99149.91
2022-11-15T00:47:52.765Z,99155.09
2022-11-15T00:50:20.172Z,99149.00
2022-11-15T00:52:46.943Z,99155.06
2022-11-15T00:55:16.772Z,99147.22
2022-11-15T00:57:43.762Z,99141.13
2022-11-15T01:00:12.061Z,99148.06
2022-11-15T01:02:39.443Z,99140.25
2022-11-15T01:05:07.341Z,99144.56
2022-11-15T01:07:34.442Z,99146.25
2022-11-15T01:10:01.693Z,99141.00
2022-11-15T01:12:28.583Z,99137.50
2022-11-15T01:14:55.722Z,99130.56
2022-11-15T01:17:22.554Z,99125.38
2022-11-15T01:19:49.682Z,99123.75
2022-11-15T01:22:16.520Z,99121.13
2022-11-15T01:24:43.623Z,99116.84
2022-11-15T01:27:11.185Z,99116.88
2022-11-15T01:29:38.259Z,99110.88
2022-11-15T01:32:05.091Z,99098.75
2022-11-15T01:34:32.192Z,99105.72
2022-11-15T01:36:59.033Z,99099.69
2022-11-15T01:39:26.354Z,99101.41
2022-11-15T01:41:53.575Z,99103.13
2022-11-15T01:44:29.470Z,99100.59
2022-11-15T01:46:56.726Z,99098.88
2022-11-15T01:49:25.062Z,99101.41
2022-11-15T01:51:52.974Z,99100.53
2022-11-15T01:54:22.332Z,99089.22
2022-11-15T01:56:54.729Z,99085.78
2022-11-15T01:59:22.881Z,99081.41
2022-11-15T02:01:50.073Z,99076.25
2022-11-15T02:04:23.845Z,99085.00
2022-11-15T02:06:50.776Z,99077.19
2022-11-15T02:09:18.586Z,99068.53
2022-11-15T02:11:48.022Z,99064.13
2022-11-15T02:14:18.770Z,99065.81
2022-11-15T02:17:01.419Z,99061.53
2022-11-15T02:19:34.311Z,99064.13
2022-11-15T02:22:04.065Z,99063.28
2022-11-15T02:25:08.061Z,99061.69
2022-11-15T02:28:02.407Z,99057.41
2022-11-15T02:30:32.432Z,99061.88
2022-11-15T02:33:06.204Z,99056.66
2022-11-15T02:35:39.342Z,99057.53
2022-11-15T02:38:08.845Z,99054.97
2022-11-15T02:40:35.845Z,99058.41
2022-11-15T02:43:31.325Z,99053.19
2022-11-15T02:46:10.921Z,99052.34
2022-11-15T02:48:38.003Z,99053.22
2022-11-15T02:51:05.665Z,99053.19
2022-11-15T02:53:32.793Z,99056.63
2022-11-15T02:56:00.124Z,99050.50
2022-11-15T02:58:45.540Z,99053.19
2022-11-15T03:01:18.533Z,99049.75
2022-11-15T03:04:03.597Z,99048.91
2022-11-15T03:06:41.183Z,99047.19
2022-11-15T03:09:15.159Z,99046.38
2022-11-15T03:11:49.735Z,99037.72
2022-11-15T03:14:27.047Z,99036.88
2022-11-15T03:17:15.633Z,99033.50
2022-11-15T03:19:46.763Z,99032.72
2022-11-15T03:22:18.482Z,99026.66
2022-11-15T03:24:48.352Z,99026.81
2022-11-15T03:27:22.711Z,99026.81
2022-11-15T03:29:54.688Z,99019.00
2022-11-15T03:32:26.734Z,99021.59
2022-11-15T03:34:59.875Z,99008.59
2022-11-15T03:37:35.237Z,99014.66
2022-11-15T03:40:03.489Z,99009.47
2022-11-15T03:42:44.359Z,99015.56
2022-11-15T03:45:36.364Z,99002.56
2022-11-15T03:48:11.486Z,99013.03
2022-11-15T03:50:38.398Z,99008.66
2022-11-15T03:53:06.073Z,99000.91
2022-11-15T03:55:33.954Z,99005.28
2022-11-15T03:58:02.191Z,99001.00
2022-11-15T04:00:29.671Z,98998.38
2022-11-15T04:02:56.981Z,98990.63
2022-11-15T04:05:23.806Z,99001.91
2022-11-15T04:07:50.875Z,98993.25
2022-11-15T04:10:17.933Z,98991.50
2022-11-15T04:12:48.614Z,98993.28
2022-11-15T04:15:18.078Z,98988.09
2022-11-15T04:17:54.470Z,98984.59
2022-11-15T04:20:46.198Z,98981.13
2022-11-15T04:23:34.909Z,98975.09
2022-11-15T04:26:08.209Z,98982.03
2022-11-15T04:28:35.252Z,98974.25
2022-11-15T04:31:02.209Z,98976.84
2022-11-15T04:33:29.737Z,98977.84
2022-11-15T04:36:15.475Z,98978.81
2022-11-15T04:38:42.502Z,98978.91
2022-11-15T04:41:09.254Z,98968.59
2022-11-15T04:43:36.427Z,98975.66
2022-11-15T04:46:03.383Z,98967.91
2022-11-15T04:48:30.525Z,98967.22
2022-11-15T04:50:57.274Z,98969.03
2022-11-15T04:53:24.321Z,98973.38
2022-11-15T04:55:51.061Z,98979.50
2022-11-15T04:58:18.069Z,98976.91
2022-11-15T05:00:44.910Z,98972.66
2022-11-15T05:03:30.871Z,98971.81
2022-11-15T05:05:58.938Z,98960.63
2022-11-15T05:08:26.515Z,98967.63
2022-11-15T05:10:53.274Z,98964.19
2022-11-15T05:13:20.342Z,98956.44
2022-11-15T05:15:48.068Z,98954.81
2022-11-15T05:18:18.279Z,98957.47
2022-11-15T05:20:49.061Z,98961.84
2022-11-15T05:23:16.135Z,98958.38
2022-11-15T05:25:42.934Z,98948.03
2022-11-15T05:28:09.994Z,98952.38
2022-11-15T05:30:36.744Z,98944.63
2022-11-15T05:33:04.590Z,98944.69
2022-11-15T05:35:35.421Z,98938.63
2022-11-15T05:38:02.437Z,98935.19
2022-11-15T05:40:31.362Z,98942.97
2022-11-15T05:43:00.918Z,98936.03
2022-11-15T05:45:27.968Z,98938.63
2022-11-15T05:47:57.779Z,98931.72
2022-11-15T05:50:24.727Z,98930.88
2022-11-15T05:52:52.623Z,98930.88
2022-11-15T05:55:19.608Z,98930.03
2022-11-15T05:57:46.681Z,98925.72
2022-11-15T06:00:13.896Z,98928.28
2022-11-15T06:02:40.914Z,98924.00
2022-11-15T06:05:07.739Z,98924.00
2022-11-15T06:07:34.869Z,98922.25
2022-11-15T06:10:02.165Z,98923.09
2022-11-15T06:12:29.214Z,98920.44
2022-11-15T06:14:55.966Z,98915.16
2022-11-15T06:17:23.000Z,98918.56
2022-11-15T06:19:49.820Z,98920.25
2022-11-15T06:22:16.894Z,98914.06
2022-11-15T06:24:44.997Z,98912.25
2022-11-15T06:27:12.570Z,98923.44
2022-11-15T06:29:39.333Z,98915.53
2022-11-15T06:32:06.993Z,98915.44
2022-11-15T06:34:33.848Z,98922.28
2022-11-15T06:37:01.050Z,98918.75
2022-11-15T06:39:27.852Z,98912.66
2022-11-15T06:41:54.930Z,98916.13
2022-11-15T06:44:21.683Z,98914.41
2022-11-15T06:46:48.670Z,98915.25
2022-11-15T06:49:15.463Z,98911.75
2022-11-15T06:51:42.464Z,98905.59
2022-11-15T06:54:09.200Z,98909.91
2022-11-15T06:56:36.242Z,98917.66
2022-11-15T06:59:03.034Z,98903.72
2022-11-15T07:01:30.137Z,98912.28
2022-11-15T07:03:56.914Z,98900.78
2022-11-15T07:06:23.946Z,98898.94
2022-11-15T07:08:50.726Z,98896.19
2022-11-15T07:11:17.741Z,98902.09
2022-11-15T07:13:44.477Z,98899.22
2022-11-15T07:16:12.102Z,98891.22
2022-11-15T07:18:40.458Z,98886.53
2022-11-15T07:21:10.705Z,98879.16
2022-11-15T07:23:39.203Z,98880.41
2022-11-15T07:26:07.309Z,98874.53
2022-11-15T07:28:34.790Z,98873.69
2022-11-15T07:31:07.453Z,98875.66
2022-11-15T07:33:35.213Z,98876.16
2022-11-15T07:36:04.566Z,98876.34
2022-11-15T07:38:31.692Z,98870.34
2022-11-15T07:41:00.526Z,98863.78
2022-11-15T07:43:31.746Z,98863.84
2022-11-15T07:45:59.847Z,98870.22
2022-11-15T07:48:35.598Z,98867.41
2022-11-15T07:51:15.731Z,98866.38
2022-11-15T07:53:44.199Z,98869.31
2022-11-15T07:56:12.185Z,98872.22
2022-11-15T07:58:38.962Z,98867.38
2022-11-15T08:01:07.181Z,98865.97
2022-11-15T08:03:34.822Z,98866.81
2022-11-15T08:06:02.844Z,98865.97
2022-11-15T08:08:30.041Z,98864.91
2022-11-15T08:10:59.577Z,98866.66
2022-11-15T08:13:26.352Z,98864.88
2022-11-15T08:15:57.560Z,98861.13
2022-11-15T08:18:24.554Z,98853.66
2022-11-15T08:20:51.716Z,98857.84
2022-11-15T08:23:18.434Z,98858.13
2022-11-15T08:25:45.487Z,98854.81
2022-11-15T08:28:12.402Z,98862.34
2022-11-15T08:30:43.091Z,98858.81
2022-11-15T08:33:14.414Z,98858.69
2022-11-15T08:35:45.252Z,98856.47
2022-11-15T08:38:12.295Z,98857.25
2022-11-15T08:40:39.368Z,98856.00
2022-11-15T08:43:06.702Z,98845.88
2022-11-15T08:45:36.216Z,98846.63
2022-11-15T08:48:04.195Z,98835.91
2022-11-15T08:50:31.417Z,98828.31
2022-11-15T08:52:58.767Z,98828.72
2022-11-15T08:55:25.863Z,98819.44
2022-11-15T08:57:52.615Z,98816.09
2022-11-15T09:00:21.039Z,98809.88
2022-11-15T09:02:47.930Z,98813.66
2022-11-15T09:05:16.543Z,98803.25
2022-11-15T09:07:43.376Z,98797.47
2022-11-15T09:10:10.575Z,98795.88
2022-11-15T09:12:37.456Z,98789.31
2022-11-15T09:15:06.410Z,98790.00
2022-11-15T09:17:33.123Z,98791.63
2022-11-15T09:20:00.360Z,98784.44
2022-11-15T09:22:27.208Z,98779.94
2022-11-15T09:24:54.246Z,98774.44
2022-11-15T09:27:20.987Z,98771.91
2022-11-15T09:29:48.005Z,98761.16
2022-11-15T09:32:14.763Z,98761.69
2022-11-15T09:34:41.811Z,98755.91
2022-11-15T09:37:08.586Z,98743.81
2022-11-15T09:39:36.115Z,98737.09
2022-11-15T09:42:36.868Z,98734.44
2022-11-15T09:45:27.252Z,98724.78
2022-11-15T09:48:20.292Z,98713.50
2022-11-15T09:50:50.657Z,98711.84
2022-11-15T09:54:01.127Z,98709.56
2022-11-15T09:56:30.529Z,98708.25
2022-11-15T09:59:12.314Z,98710.88
2022-11-15T10:02:03.566Z,98706.56
2022-11-15T10:04:32.817Z,98698.94
2022-11-15T10:07:14.907Z,98696.69
2022-11-15T10:09:57.623Z,98694.03
2022-11-15T10:12:26.154Z,98691.28
2022-11-15T10:15:08.023Z,98686.34
2022-11-15T10:17:35.019Z,98679.63
2022-11-15T10:20:20.838Z,98676.53
2022-11-15T10:22:51.609Z,98671.28
2022-11-15T10:25:27.599Z,98674.22
2022-11-15T10:28:02.846Z,98677.63
2022-11-15T10:30:36.154Z,98670.97
2022-11-15T10:33:14.976Z,98675.34
2022-11-15T10:35:42.570Z,98662.91
2022-11-15T10:38:12.488Z,98665.78
2022-11-15T10:40:41.153Z,98660.44
2022-11-15T10:43:10.982Z,98664.03
2022-11-15T10:45:39.312Z,98651.16
2022-11-15T10:48:15.210Z,98661.66
2022-11-15T10:50:47.089Z,98656.22
2022-11-15T10:53:43.048Z,98653.59
2022-11-15T10:56:14.520Z,98646.75
2022-11-15T10:58:51.029Z,98645.81
2022-11-15T11:01:25.682Z,98643.22
2022-11-15T11:04:07.799Z,98632.47
2022-11-15T11:06:50.440Z,98630.16
2022-11-15T11:09:36.616Z,98627.72
2022-11-15T11:12:10.830Z,98624.78
2022-11-15T11:14:40.072Z,98617.91
2022-11-15T11:17:22.022Z,98616.91
2022-11-15T11:19:55.140Z,98609.47
2022-11-15T11:22:55.586Z,98600.81
2022-11-15T11:25:25.574Z,98602.06
2022-11-15T11:28:48.954Z,98602.91
2022-11-15T11:31:27.516Z,98593.13
2022-11-15T11:34:15.768Z,98589.31
2022-11-15T11:36:59.805Z,98590.41
2022-11-15T11:40:10.625Z,98583.13
2022-11-15T11:42:44.821Z,98575.69
2022-11-15T11:45:24.467Z,98562.28
2022-11-15T11:48:03.823Z,98566.19
2022-11-15T11:50:30.719Z,98553.97
2022-11-15T11:53:15.708Z,98553.78
2022-11-15T11:55:53.972Z,98545.38
2022-11-15T11:58:41.230Z,98533.22
2022-11-15T12:01:31.423Z,98528.00
2022-11-15T12:04:12.630Z,98527.31
2022-11-15T12:06:43.701Z,98517.47
2022-11-15T12:09:17.251Z,98521.94
2022-11-15T12:12:02.102Z,98518.03
2022-11-15T12:14:34.291Z,98524.66
2022-11-15T12:17:01.558Z,98514.47
2022-11-15T12:19:30.921Z,98512.44
2022-11-15T12:22:16.457Z,98507.44
2022-11-15T12:25:14.184Z,98510.28
2022-11-15T12:27:58.446Z,98509.88
2022-11-15T12:30:42.194Z,98503.75
2022-11-15T12:33:46.830Z,98501.06
2022-11-15T12:36:42.591Z,98485.50
2022-11-15T12:39:11.797Z,98490.22
2022-11-15T12:42:05.126Z,98492.19
2022-11-15T12:44:31.882Z,98488.47
2022-11-15T12:46:58.890Z,98492.63
2022-11-15T12:49:28.806Z,98484.34
2022-11-15T12:51:58.646Z,98488.41
2022-11-15T12:54:25.584Z,98493.13
2022-11-15T12:57:05.030Z,98496.41
2022-11-15T12:59:51.562Z,98488.31
2022-11-15T13:02:40.682Z,98489.44
2022-11-15T13:05:16.307Z,98486.09
2022-11-15T13:07:43.415Z,98487.03
2022-11-15T13:10:12.981Z,98490.03
2022-11-15T13:12:46.014Z,98484.00
2022-11-15T13:15:12.677Z,98480.72
2022-11-15T13:17:45.534Z,98480.66
2022-11-15T13:20:12.278Z,98480.13
2022-11-15T13:23:01.922Z,98477.69
2022-11-15T13:25:37.890Z,98485.69
2022-11-15T13:28:10.744Z,98480.38
2022-11-15T13:30:38.465Z,98477.25
2022-11-15T13:33:12.144Z,98480.16
2022-11-15T13:35:42.074Z,98472.31
2022-11-15T13:38:21.288Z,98474.63
2022-11-15T13:40:48.035Z,98470.09
2022-11-15T13:43:24.101Z,98456.91
2022-11-15T13:46:19.503Z,98464.31
2022-11-15T13:48:51.816Z,98465.53
2022-11-15T13:51:21.168Z,98462.00
2022-11-15T13:54:00.985Z,98457.78
2022-11-15T13:56:30.167Z,98458.31
2022-11-15T13:58:57.446Z,98461.66
2022-11-15T14:01:29.169Z,98455.50
2022-11-15T14:04:01.637Z,98446.00
2022-11-15T14:06:31.826Z,98447.28
2022-11-15T14:09:20.324Z,98443.56
2022-11-15T14:11:52.031Z,98437.09
2022-11-15T14:14:24.623Z,98446.56
2022-11-15T14:16:54.915Z,98437.03
2022-11-15T14:19:21.942Z,98432.94
2022-11-15T14:22:08.901Z,98446.59
2022-11-15T14:24:36.292Z,98437.88
2022-11-15T14:27:27.446Z,98436.25
2022-11-15T14:29:54.725Z,98433.34
2022-11-15T14:32:24.167Z,98427.50
2022-11-15T14:34:57.783Z,98425.00
2022-11-15T14:37:27.455Z,98423.19
2022-11-15T14:39:55.185Z,98423.56
2022-11-15T14:42:23.633Z,98420.31
2022-11-15T14:44:51.309Z,98418.50
2022-11-15T14:47:18.682Z,98419.69
2022-11-15T14:49:46.451Z,98422.31
2022-11-15T14:52:32.815Z,98422.31
2022-11-15T14:55:04.274Z,98415.38
2022-11-15T14:57:31.816Z,98421.22
2022-11-15T14:59:58.963Z,98409.50
2022-11-15T15:02:27.876Z,98412.78
2022-11-15T15:04:55.448Z,98403.75
2022-11-15T15:07:23.272Z,98404.34
2022-11-15T15:09:50.370Z,98399.88
2022-11-15T15:12:19.736Z,98404.09
2022-11-15T15:14:49.099Z,98408.16
2022-11-15T15:17:17.335Z,98401.66
2022-11-15T15:19:44.457Z,98410.25
2022-11-15T15:22:17.439Z,98404.78
2022-11-15T15:24:46.203Z,98399.06
2022-11-15T15:27:13.563Z,98399.56
2022-11-15T15:29:41.524Z,98399.09
2022-11-15T15:32:09.964Z,98401.94
2022-11-15T15:34:37.013Z,98390.00
2022-11-15T15:37:09.940Z,98396.34
2022-11-15T15:39:36.993Z,98396.56
2022-11-15T15:42:04.971Z,98395.88
2022-11-15T15:44:31.974Z,98402.13
2022-11-15T15:46:59.025Z,98399.34
2022-11-15T15:49:26.061Z,98386.81
2022-11-15T15:51:52.891Z,98385.44
2022-11-15T15:54:19.913Z,98384.69
2022-11-15T15:56:48.338Z,98381.34
2022-11-15T15:59:16.995Z,98377.06
2022-11-15T16:01:43.779Z,98373.00
2022-11-15T16:04:10.897Z,98372.53
2022-11-15T16:06:44.349Z,98364.88
2022-11-15T16:09:20.198Z,98364.97
2022-11-15T16:11:48.083Z,98371.13
2022-11-15T16:14:15.176Z,98371.94
2022-11-15T16:16:42.173Z,98369.50
2022-11-15T16:19:11.576Z,98365.06
2022-11-15T16:21:38.312Z,98354.63
2022-11-15T16:24:05.638Z,98343.66
2022-11-15T16:26:35.869Z,98355.25
2022-11-15T16:29:02.978Z,98349.38
2022-11-15T16:31:29.847Z,98349.22
2022-11-15T16:33:56.920Z,98348.16
2022-11-15T16:36:30.441Z,98339.47
2022-11-15T16:38:59.556Z,98342.94
2022-11-15T16:41:26.794Z,98336.69
2022-11-15T16:43:53.840Z,98336.47
2022-11-15T16:46:25.891Z,98333.69
2022-11-15T16:48:54.335Z,98329.09
2022-11-15T16:51:21.536Z,98332.50
2022-11-15T16:53:51.691Z,98334.91
2022-11-15T16:56:23.972Z,98331.19
2022-11-15T16:58:51.143Z,98323.13
2022-11-15T17:01:22.688Z,98322.91
2022-11-15T17:03:49.814Z,98319.97
2022-11-15T17:06:18.788Z,98316.16
2022-11-15T17:08:46.205Z,98316.28
2022-11-15T17:11:19.178Z,98313.66
2022-11-15T17:13:46.848Z,98310.16
2022-11-15T17:16:15.874Z,98318.81
2022-11-15T17:18:46.785Z,98311.72
2022-11-15T17:21:15.908Z,98314.19
2022-11-15T17:23:43.740Z,98319.38
2022-11-15T17:26:29.633Z,98316.59
2022-11-15T17:28:59.291Z,98319.19
2022-11-15T17:31:26.065Z,98324.50
2022-11-15T17:33:53.523Z,98321.03
2022-11-15T17:36:21.126Z,98322.84
2022-11-15T17:38:55.425Z,98328.88
2022-11-15T17:41:27.032Z,98321.78
2022-11-15T17:43:56.295Z,98321.63
2022-11-15T17:46:23.064Z,98318.13
2022-11-15T17:48:50.121Z,98321.31
2022-11-15T17:51:18.639Z,98316.81
2022-11-15T17:56:11.850Z,98301.66
2022-11-15T17:58:39.738Z,98301.53
2022-11-15T18:01:15.932Z,98301.50
2022-11-15T18:03:43.291Z,98299.03
2022-11-15T18:06:11.848Z,98297.41
2022-11-15T18:08:41.278Z,98289.66
2022-11-15T18:11:12.601Z,98282.63
2022-11-15T18:13:41.603Z,98285.09
2022-11-15T18:16:12.169Z,98281.53
2022-11-15T18:18:39.776Z,98277.16
2022-11-15T18:21:28.217Z,98276.44
2022-11-15T18:24:01.012Z,98272.88
2022-11-15T18:26:30.130Z,98275.38
2022-11-15T18:29:02.600Z,98272.59
2022-11-15T18:31:30.902Z,98282.19
2022-11-15T18:34:01.114Z,98272.53
2022-11-15T18:36:29.965Z,98283.63
2022-11-15T18:38:59.339Z,98279.97
2022-11-15T18:41:28.688Z,98274.66
2022-11-15T18:44:00.599Z,98272.94
2022-11-15T18:46:30.858Z,98275.53
2022-11-15T18:49:00.119Z,98270.22
2022-11-15T18:51:32.358Z,98264.03
2022-11-15T18:54:01.950Z,98258.84
2022-11-15T18:56:29.619Z,98259.13
2022-11-15T18:58:59.661Z,98265.81
2022-11-15T19:01:41.396Z,98256.78
2022-11-15T19:04:14.390Z,98254.00
2022-11-15T19:06:43.801Z,98247.66
2022-11-15T19:09:14.524Z,98250.16
2022-11-15T19:11:41.828Z,98247.47
2022-11-15T19:14:11.421Z,98246.69
2022-11-15T19:16:39.714Z,98243.53
2022-11-15T19:19:10.679Z,98243.41
2022-11-15T19:21:38.383Z,98235.41
2022-11-15T19:24:06.067Z,98227.47
2022-11-15T19:26:33.348Z,98232.53
2022-11-15T19:29:01.864Z,98232.31
2022-11-15T19:31:31.455Z,98223.41
2022-11-15T19:34:00.475Z,98231.97
2022-11-15T19:36:32.528Z,98223.06
2022-11-15T19:39:08.329Z,98222.84
2022-11-15T19:41:38.518Z,98221.81
2022-11-15T19:44:06.586Z,98224.28
2022-11-15T19:46:34.032Z,98232.09
2022-11-15T19:49:01.825Z,98225.00
2022-11-15T19:51:30.849Z,98214.72
2022-11-15T19:54:06.722Z,98226.16
2022-11-15T19:56:34.579Z,98217.56
2022-11-15T19:59:02.862Z,98222.78
2022-11-15T20:01:31.972Z,98218.44
2022-11-15T20:04:00.380Z,98213.22
2022-11-15T20:06:30.683Z,98208.84
2022-11-15T20:08:58.456Z,98212.38
2022-11-15T20:11:26.010Z,98207.06
2022-11-15T20:14:00.384Z,98200.03
2022-11-15T20:16:27.147Z,98196.34
2022-11-15T20:18:54.294Z,98194.56
2022-11-15T20:21:21.986Z,98194.72
2022-11-15T20:23:51.097Z,98191.25
2022-11-15T20:26:19.276Z,98188.69
2022-11-15T20:28:48.178Z,98196.56
2022-11-15T20:31:16.338Z,98187.91
2022-11-15T20:33:43.721Z,98185.28
2022-11-15T20:36:12.979Z,98186.97
2022-11-15T20:38:40.132Z,98184.34
2022-11-15T20:41:06.956Z,98173.00
2022-11-15T20:43:34.169Z,98180.97
2022-11-15T20:46:00.917Z,98178.34
2022-11-15T20:48:28.004Z,98169.69
2022-11-15T20:51:05.188Z,98168.91
2022-11-15T20:53:32.447Z,98169.81
2022-11-15T20:56:05.379Z,98170.75
2022-11-15T20:58:33.017Z,98169.03
2022-11-15T21:01:00.168Z,98167.34
2022-11-15T21:03:27.771Z,98160.38
2022-11-15T21:05:54.864Z,98163.94
2022-11-15T21:08:21.961Z,98157.84
2022-11-15T21:11:11.936Z,98150.81
2022-11-15T21:13:39.451Z,98149.97
2022-11-15T21:16:06.707Z,98149.97
2022-11-15T21:18:34.293Z,98140.34
2022-11-15T21:21:07.492Z,98148.19
2022-11-15T21:23:34.568Z,98141.38
2022-11-15T21:26:01.299Z,98143.31
2022-11-15T21:28:28.332Z,98143.38
2022-11-15T21:31:01.217Z,98140.81
2022-11-15T21:33:28.558Z,98136.50
2022-11-15T21:35:56.826Z,98137.34
2022-11-15T21:38:24.795Z,98138.25
2022-11-15T21:40:52.715Z,98118.94
2022-11-15T21:43:20.777Z,98125.00
2022-11-15T21:46:02.424Z,98123.19
2022-11-15T21:48:31.422Z,98119.34
2022-11-15T21:51:03.870Z,98115.66
2022-11-15T21:53:31.779Z,98116.16
2022-11-15T21:55:59.812Z,98111.25
2022-11-15T21:58:27.739Z,98114.25
2022-11-15T22:01:14.186Z,98114.50
2022-11-15T22:03:42.357Z,98107.63
2022-11-15T22:06:16.050Z,98110.56
2022-11-15T22:08:45.600Z,98104.00
2022-11-15T22:11:12.671Z,98103.56
2022-11-15T22:13:40.014Z,98101.41
2022-11-15T22:16:07.634Z,98088.66
2022-11-15T22:18:34.902Z,98089.03
2022-11-15T22:21:12.433Z,98081.28
2022-11-15T22:23:40.348Z,98091.97
2022-11-15T22:26:08.662Z,98081.63
2022-11-15T22:28:36.137Z,98073.28
2022-11-15T22:31:03.991Z,98077.09
2022-11-15T22:33:32.939Z,98076.47
2022-11-15T22:36:00.457Z,98068.94
2022-11-15T22:38:28.426Z,98068.50
2022-11-15T22:40:55.607Z,98064.78
2022-11-15T22:43:24.498Z,98061.13
2022-11-15T22:45:51.224Z,98060.88
2022-11-15T22:48:20.453Z,98061.56
2022-11-15T22:50:47.413Z,98055.34
2022-11-15T22:53:14.544Z,98046.59
2022-11-15T22:55:42.207Z,98040.41
2022-11-15T22:58:10.073Z,98044.81
2022-11-15T23:00:37.460Z,98039.47
2022-11-15T23:03:04.585Z,98032.34
2022-11-15T23:05:31.325Z,98034.03
2022-11-15T23:07:58.335Z,98033.09
2022-11-15T23:10:43.451Z,98034.63
2022-11-15T23:13:17.262Z,98026.91
2022-11-15T23:16:07.843Z,98019.88
2022-11-15T23:18:39.180Z,98027.00
2022-11-15T23:21:15.001Z,98027.91
2022-11-15T23:23:42.243Z,98026.13
2022-11-15T23:26:09.153Z,98019.00
2022-11-15T23:28:36.377Z,98022.41
2022-11-15T23:31:26.599Z,98016.28
2022-11-15T23:33:59.354Z,98019.69
2022-11-15T23:36:27.529Z,98007.38
2022-11-15T23:38:55.019Z,98010.84
2022-11-15T23:41:23.806Z,98007.28
2022-11-15T23:43:52.029Z,98007.22
2022-11-15T23:46:18.852Z,98011.72
2022-11-15T23:48:46.308Z,98004.66
2022-11-15T23:51:13.208Z,98004.72
2022-11-15T23:53:40.373Z,97994.38
2022-11-15T23:56:11.145Z,97986.41
2022-11-15T23:58:38.203Z,97989.97
